Time;durP1;ratioP1;P1;durP2;ratioP2;P2;SDS_P1;SDS_P2;PMS_P1;PMS_P2;Temp;Humidity;BMP_temperature;BMP_pressure;BME280_temperature;BME280_humidity;BME280_pressure;Samples;Min_cycle;Max_cycle;Signal;HPM_P1;HPM_P2
2021/12/07 00:00:38;;;;;;;;;;;1.90;99.90;;;;;;4989553;28;19992;-80
2021/12/07 00:03:05;;;;;;;;;;;1.90;99.90;;;;;;4990749;28;19960;-79
2021/12/07 00:05:32;;;;;;;;;;;1.90;99.90;;;;;;4988742;28;19995;-80
2021/12/07 00:07:59;;;;;;;;;;;1.90;99.90;;;;;;4983217;28;20629;-81
2021/12/07 00:10:26;;;;;;;;;;;1.90;99.90;;;;;;5006592;28;19930;-80
2021/12/07 00:12:55;;;;;;;;;;;1.90;99.90;;;;;;4990423;28;20462;-80
2021/12/07 00:15:23;;;;;;;;;;;1.90;99.90;;;;;;5005497;28;19925;-79
2021/12/07 00:17:50;;;;;;;;;;;1.90;99.90;;;;;;4988586;28;19968;-80
2021/12/07 00:20:19;;;;;;;;;;;1.90;99.90;;;;;;4989729;28;19929;-80
2021/12/07 00:22:47;;;;;;;;;;;1.90;99.90;;;;;;4983782;28;19937;-80
2021/12/07 00:25:14;;;;;;;;;;;1.90;99.90;;;;;;5008929;28;19926;-80
2021/12/07 00:27:41;;;;;;;;;;;1.90;99.90;;;;;;4985951;28;20379;-80
2021/12/07 00:30:12;;;;;;;;;;;1.90;99.90;;;;;;4991093;28;19930;-80
2021/12/07 00:32:43;;;;;;;;;;;1.90;99.90;;;;;;4999139;28;19934;-80
2021/12/07 00:35:33;;;;;;;;;;;1.90;99.90;;;;;;4989646;28;20413;-80
2021/12/07 00:38:01;;;;;;;;;;;1.80;99.90;;;;;;4985703;28;20028;-80
2021/12/07 00:40:28;;;;;;;;;;;1.80;99.90;;;;;;4989805;28;19926;-80
2021/12/07 00:42:55;;;;;;;;;;;1.80;99.90;;;;;;4977173;28;19940;-80
2021/12/07 00:45:25;;;;;;;;;;;1.90;99.90;;;;;;4985820;28;19956;-80
2021/12/07 00:47:54;;;;;;;;;;;1.80;99.90;;;;;;4985965;28;20447;-79
2021/12/07 00:50:22;;;;;;;;;;;1.80;99.90;;;;;;5006247;28;19932;-80
2021/12/07 00:52:50;;;;;;;;;;;1.90;99.90;;;;;;4989473;28;19937;-80
2021/12/07 00:55:20;;;;;;;;;;;1.80;99.90;;;;;;4994514;28;19936;-80
2021/12/07 00:57:51;;;;;;;;;;;1.80;99.90;;;;;;4990215;28;19956;-80
2021/12/07 01:00:19;;;;;;;;;;;1.80;99.90;;;;;;4985559;28;20109;-80
2021/12/07 01:02:47;;;;;;;;;;;1.80;99.90;;;;;;4989594;28;19940;-80
2021/12/07 01:05:19;;;;;;;;;;;1.80;99.90;;;;;;4988297;28;20346;-80
2021/12/07 01:27:02;;;;;;;;;;;1.80;99.90;;;;;;4991106;28;20410;-80
2021/12/07 01:29:30;;;;;;;;;;;1.80;99.90;;;;;;4988252;28;19937;-80
2021/12/07 01:32:08;;;;;;;;;;;1.80;99.90;;;;;;4984251;28;20407;-80
2021/12/07 01:34:59;;;;;;;;;;;1.80;99.90;;;;;;4989178;28;19932;-79
2021/12/07 01:37:37;;;;;;;;;;;1.80;99.90;;;;;;4989253;28;19940;-80
2021/12/07 01:40:30;;;;;;;;;;;1.80;99.90;;;;;;4988720;28;19937;-81
2021/12/07 01:43:30;;;;;;;;;;;1.80;99.90;;;;;;4986978;28;19933;-80
2021/12/07 01:46:32;;;;;;;;;;;1.80;99.90;;;;;;4995892;28;19932;-80
2021/12/07 01:52:06;;;;;;;;;;;1.80;99.90;;;;;;4991158;28;20345;-80
2021/12/07 02:00:03;;;;;;;;;;;1.80;99.90;;;;;;5004745;28;19929;-80
2021/12/07 02:02:39;;;;;;;;;;;1.80;99.90;;;;;;5007325;28;19935;-80
2021/12/07 02:05:08;;;;;;;;;;;1.90;99.90;;;;;;4991529;28;19932;-79
2021/12/07 02:07:37;;;;;;;;;;;1.80;99.90;;;;;;4991935;28;20044;-80
2021/12/07 02:10:09;;;;;;;;;;;1.80;99.90;;;;;;4991466;28;20005;-80
2021/12/07 02:12:43;;;;;;;;;;;1.80;99.90;;;;;;4990423;28;19929;-80
2021/12/07 02:15:10;;;;;;;;;;;1.80;99.90;;;;;;4988740;28;19937;-80
2021/12/07 02:17:37;;;;;;;;;;;1.80;99.90;;;;;;5009474;28;19925;-80
2021/12/07 02:20:05;;;;;;;;;;;1.80;99.90;;;;;;4993852;28;20024;-80
2021/12/07 02:22:34;;;;;;;;;;;1.80;99.90;;;;;;5004526;28;20012;-80
2021/12/07 02:25:02;;;;;;;;;;;1.80;99.90;;;;;;4991476;28;19929;-80
2021/12/07 02:27:29;;;;;;;;;;;1.80;99.90;;;;;;4989856;28;20012;-80
2021/12/07 02:29:56;;;;;;;;;;;1.80;99.90;;;;;;4994991;28;19925;-80
2021/12/07 02:32:23;;;;;;;;;;;1.80;99.90;;;;;;4990654;28;20011;-80
2021/12/07 02:34:57;;;;;;;;;;;1.80;99.90;;;;;;4992246;28;19941;-79
2021/12/07 02:37:25;;;;;;;;;;;1.80;99.90;;;;;;5007851;28;19925;-80
2021/12/07 02:39:54;;;;;;;;;;;1.80;99.90;;;;;;5010084;28;19929;-80
2021/12/07 02:42:22;;;;;;;;;;;1.80;99.90;;;;;;4991394;28;19964;-80
2021/12/07 02:44:49;;;;;;;;;;;1.80;99.90;;;;;;4990203;28;19934;-80
2021/12/07 02:47:16;;;;;;;;;;;1.80;99.90;;;;;;4997150;28;19925;-80
2021/12/07 02:49:43;;;;;;;;;;;1.80;99.90;;;;;;4996636;28;19941;-80
2021/12/07 02:52:10;;;;;;;;;;;1.70;99.90;;;;;;4993866;28;19936;-80
2021/12/07 02:54:43;;;;;;;;;;;1.80;99.90;;;;;;4993298;28;19926;-80
2021/12/07 02:57:13;;;;;;;;;;;1.80;99.90;;;;;;4994728;28;19988;-80
2021/12/07 02:59:41;;;;;;;;;;;1.80;99.90;;;;;;4993631;28;19934;-80
2021/12/07 03:02:10;;;;;;;;;;;1.80;99.90;;;;;;4991440;28;19932;-79
2021/12/07 03:04:43;;;;;;;;;;;1.80;99.90;;;;;;4991875;28;19952;-80
2021/12/07 03:07:18;;;;;;;;;;;1.80;99.90;;;;;;5008793;28;19933;-79
2021/12/07 03:37:57;;;;;;;;;;;1.70;99.90;;;;;;5060978;28;19930;-84
2021/12/07 03:40:26;;;;;;;;;;;1.70;99.90;;;;;;5055928;28;19928;-85
2021/12/07 03:42:54;;;;;;;;;;;1.80;99.90;;;;;;5058838;28;19986;-86
2021/12/07 03:45:24;;;;;;;;;;;1.80;99.90;;;;;;5052668;28;19940;-85
2021/12/07 03:47:52;;;;;;;;;;;1.80;99.90;;;;;;5050074;28;19921;-87
2021/12/07 03:50:21;;;;;;;;;;;1.80;99.90;;;;;;5053297;28;19929;-87
2021/12/07 04:08:32;;;;;;;;;;;1.80;99.90;;;;;;5306952;22;19936;-86
2021/12/07 04:11:00;;;;;;;;;;;1.80;99.90;;;;;;5071301;28;19920;-87
2021/12/07 04:13:28;;;;;;;;;;;1.70;99.90;;;;;;5068057;28;19959;-87
2021/12/07 04:15:57;;;;;;;;;;;1.80;99.90;;;;;;5072586;28;19912;-86
2021/12/07 04:18:25;;;;;;;;;;;1.80;99.90;;;;;;5069841;28;20143;-85
2021/12/07 04:20:53;;;;;;;;;;;1.80;99.90;;;;;;5073479;28;19924;-88
2021/12/07 04:23:20;;;;;;;;;;;1.80;99.90;;;;;;5062142;28;19909;-86
2021/12/07 04:25:47;;;;;;;;;;;1.80;99.90;;;;;;5088362;28;19936;-86
2021/12/07 04:28:15;;;;;;;;;;;1.80;99.90;;;;;;5089716;28;19960;-87
2021/12/07 04:30:43;;;;;;;;;;;1.80;99.90;;;;;;5073077;28;19909;-87
2021/12/07 04:33:13;;;;;;;;;;;1.70;99.90;;;;;;5069169;28;19917;-88
2021/12/07 04:35:42;;;;;;;;;;;1.70;99.90;;;;;;5064178;28;19935;-87
2021/12/07 04:38:10;;;;;;;;;;;1.80;99.90;;;;;;5069461;28;19913;-88
2021/12/07 04:40:38;;;;;;;;;;;1.80;99.90;;;;;;5070447;28;19952;-87
2021/12/07 04:43:07;;;;;;;;;;;1.80;99.90;;;;;;5066500;28;19912;-88
2021/12/07 04:45:48;;;;;;;;;;;1.80;99.90;;;;;;5069084;28;19976;-87
2021/12/07 05:00:30;;;;;;;;;;;1.70;99.90;;;;;;5337440;22;19974;-85
2021/12/07 05:03:01;;;;;;;;;;;1.80;99.90;;;;;;5066058;28;19921;-87
2021/12/07 05:05:34;;;;;;;;;;;1.70;99.90;;;;;;5050243;28;19936;-85
2021/12/07 05:08:05;;;;;;;;;;;1.70;99.90;;;;;;5051515;28;19933;-86
2021/12/07 05:10:37;;;;;;;;;;;1.70;99.90;;;;;;5054384;28;19925;-85
2021/12/07 05:18:54;;;;;;;;;;;1.70;99.90;;;;;;5070515;22;19913;-85
2021/12/07 05:24:24;;;;;;;;;;;1.70;99.90;;;;;;5191459;22;20153;-87
2021/12/07 05:39:27;;;;;;;;;;;1.70;99.90;;;;;;5090051;28;19924;-88
2021/12/07 05:41:55;;;;;;;;;;;1.70;99.90;;;;;;5091615;28;19909;-86
2021/12/07 05:44:23;;;;;;;;;;;1.70;99.90;;;;;;5109514;28;19956;-90
2021/12/07 05:46:50;;;;;;;;;;;1.80;99.90;;;;;;5091622;28;19932;-89
2021/12/07 05:49:18;;;;;;;;;;;1.70;99.90;;;;;;5107807;28;19956;-90
2021/12/07 05:51:45;;;;;;;;;;;1.70;99.90;;;;;;5087477;28;19921;-91
2021/12/07 05:54:13;;;;;;;;;;;1.70;99.90;;;;;;5088201;28;19931;-91
2021/12/07 05:56:45;;;;;;;;;;;1.70;99.90;;;;;;5101509;22;19927;-92
2021/12/07 05:59:16;;;;;;;;;;;1.70;99.90;;;;;;5072736;28;19921;-89
2021/12/07 06:01:43;;;;;;;;;;;1.70;99.90;;;;;;5070491;28;19921;-90
2021/12/07 06:04:10;;;;;;;;;;;1.70;99.90;;;;;;5072060;28;19948;-90
2021/12/07 06:06:38;;;;;;;;;;;1.80;99.90;;;;;;5067328;28;19940;-88
2021/12/07 06:09:06;;;;;;;;;;;1.80;99.90;;;;;;5068445;28;19952;-88
2021/12/07 06:11:33;;;;;;;;;;;1.70;99.90;;;;;;5066032;28;19929;-90
2021/12/07 06:14:02;;;;;;;;;;;1.80;99.90;;;;;;5060725;28;19981;-92
2021/12/07 06:16:31;;;;;;;;;;;1.70;99.90;;;;;;5072808;28;19931;-88
2021/12/07 06:18:59;;;;;;;;;;;1.70;99.90;;;;;;5067163;28;19926;-89
2021/12/07 06:21:28;;;;;;;;;;;1.70;99.90;;;;;;5065826;28;19929;-88
2021/12/07 06:23:56;;;;;;;;;;;1.70;99.90;;;;;;5065580;28;20011;-88
2021/12/07 06:26:23;;;;;;;;;;;1.70;99.90;;;;;;5068563;28;20015;-89
2021/12/07 06:28:50;;;;;;;;;;;1.70;99.90;;;;;;5068308;28;19958;-86
2021/12/07 06:31:19;;;;;;;;;;;1.70;99.90;;;;;;5070382;28;19982;-89
2021/12/07 06:33:46;;;;;;;;;;;1.70;99.90;;;;;;5071258;28;19932;-89
2021/12/07 06:36:16;;;;;;;;;;;1.80;99.90;;;;;;5075735;28;19920;-88
2021/12/07 06:38:47;;;;;;;;;;;1.70;99.90;;;;;;5082937;28;19956;-88
2021/12/07 06:41:15;;;;;;;;;;;1.70;99.90;;;;;;5068724;28;19913;-86
2021/12/07 06:43:44;;;;;;;;;;;1.70;99.90;;;;;;5071477;28;19939;-87
2021/12/07 06:46:12;;;;;;;;;;;1.70;99.90;;;;;;5073288;28;19948;-89
2021/12/07 06:48:41;;;;;;;;;;;1.70;99.90;;;;;;5075821;28;19927;-88
2021/12/07 06:51:08;;;;;;;;;;;1.70;99.90;;;;;;5072653;28;19909;-86
2021/12/07 06:53:37;;;;;;;;;;;1.70;99.90;;;;;;5064934;28;19947;-90
2021/12/07 06:56:08;;;;;;;;;;;1.70;99.90;;;;;;5071548;28;19921;-85
2021/12/07 06:58:35;;;;;;;;;;;1.70;99.90;;;;;;5073452;28;19913;-88
2021/12/07 07:01:05;;;;;;;;;;;1.70;99.90;;;;;;5069478;28;19933;-89
2021/12/07 07:03:32;;;;;;;;;;;1.70;99.90;;;;;;5066060;28;19921;-89
2021/12/07 07:06:01;;;;;;;;;;;1.70;99.90;;;;;;5070413;28;19921;-89
2021/12/07 07:08:29;;;;;;;;;;;1.70;99.90;;;;;;5082215;28;19909;-88
2021/12/07 07:10:56;;;;;;;;;;;1.70;99.90;;;;;;5068842;28;19919;-88
2021/12/07 07:13:24;;;;;;;;;;;1.70;99.90;;;;;;5087336;28;19925;-88
2021/12/07 07:15:51;;;;;;;;;;;1.70;99.90;;;;;;5088906;28;19909;-86
2021/12/07 07:18:19;;;;;;;;;;;1.70;99.90;;;;;;5071425;28;19920;-89
2021/12/07 07:20:47;;;;;;;;;;;1.70;99.90;;;;;;5075162;28;19912;-89
2021/12/07 07:23:16;;;;;;;;;;;1.70;99.90;;;;;;5073791;28;19921;-87
2021/12/07 07:25:43;;;;;;;;;;;1.70;99.90;;;;;;5071890;28;19921;-89
2021/12/07 07:28:10;;;;;;;;;;;1.60;99.90;;;;;;5076911;28;20140;-88
2021/12/07 07:30:38;;;;;;;;;;;1.60;99.90;;;;;;5078086;28;19916;-86
2021/12/07 07:33:05;;;;;;;;;;;1.60;99.90;;;;;;5069906;28;19932;-87
2021/12/07 07:35:33;;;;;;;;;;;1.60;99.90;;;;;;5070269;28;20133;-89
2021/12/07 07:38:00;;;;;;;;;;;1.60;99.90;;;;;;5067902;28;19929;-87
2021/12/07 07:40:29;;;;;;;;;;;1.60;99.90;;;;;;5072511;28;19996;-89
2021/12/07 07:42:59;;;;;;;;;;;1.60;99.90;;;;;;5070044;28;19913;-89
2021/12/07 07:45:50;;;;;;;;;;;1.60;99.90;;;;;;5211656;22;20113;-88
2021/12/07 07:48:18;;;;;;;;;;;1.60;99.90;;;;;;5105983;28;19913;-89
2021/12/07 07:50:46;;;;;;;;;;;1.70;99.90;;;;;;5124499;28;19908;-87
2021/12/07 07:53:13;;;;;;;;;;;1.60;99.90;;;;;;5106002;28;19920;-89
2021/12/07 07:55:43;;;;;;;;;;;1.70;99.90;;;;;;5090295;28;19913;-86
2021/12/07 07:58:11;;;;;;;;;;;1.60;99.90;;;;;;5092529;28;19908;-87
2021/12/07 08:00:39;;;;;;;;;;;1.70;99.90;;;;;;5092728;28;19912;-88
2021/12/07 08:03:07;;;;;;;;;;;1.70;99.90;;;;;;5090045;28;19912;-89
2021/12/07 08:05:37;;;;;;;;;;;1.70;99.90;;;;;;5093743;28;19934;-86
2021/12/07 08:08:07;;;;;;;;;;;1.70;99.90;;;;;;5095030;28;19951;-88
2021/12/07 08:10:34;;;;;;;;;;;1.70;99.90;;;;;;5094118;28;19934;-88
2021/12/07 08:13:05;;;;;;;;;;;1.70;99.90;;;;;;5094587;28;19920;-89
2021/12/07 08:18:30;;;;;;;;;;;1.70;99.90;;;;;;5369490;22;19943;-85
2021/12/07 08:20:58;;;;;;;;;;;1.70;99.90;;;;;;5095327;28;19962;-87
2021/12/07 08:23:25;;;;;;;;;;;1.70;99.90;;;;;;5093537;28;19939;-89
2021/12/07 08:25:54;;;;;;;;;;;1.70;99.90;;;;;;5087254;28;19924;-88
2021/12/07 08:28:23;;;;;;;;;;;1.70;99.90;;;;;;5090421;28;19920;-88
2021/12/07 08:30:50;;;;;;;;;;;1.70;99.90;;;;;;5097399;28;19959;-89
2021/12/07 08:33:18;;;;;;;;;;;1.70;99.90;;;;;;5084011;28;19917;-86
2021/12/07 08:35:45;;;;;;;;;;;1.70;99.90;;;;;;5089732;28;19912;-88
2021/12/07 08:38:12;;;;;;;;;;;1.70;99.90;;;;;;5101477;28;19909;-86
2021/12/07 08:40:40;;;;;;;;;;;1.70;99.90;;;;;;5093622;28;20038;-90
2021/12/07 08:43:09;;;;;;;;;;;1.70;99.90;;;;;;5096998;28;19909;-88
2021/12/07 08:45:38;;;;;;;;;;;1.70;99.90;;;;;;5093803;28;19928;-88
2021/12/07 08:48:06;;;;;;;;;;;1.70;99.90;;;;;;5088140;28;19940;-87
2021/12/07 08:50:34;;;;;;;;;;;1.70;99.90;;;;;;5093678;28;19909;-87
2021/12/07 08:53:03;;;;;;;;;;;1.70;99.90;;;;;;5092736;28;20017;-89
2021/12/07 09:01:45;;;;;;;;;;;1.80;99.90;;;;;;5094640;28;19955;-88
2021/12/07 09:04:17;;;;;;;;;;;1.70;99.90;;;;;;5109128;28;19932;-88
2021/12/07 09:06:44;;;;;;;;;;;1.70;99.90;;;;;;5075205;28;19924;-88
2021/12/07 09:09:12;;;;;;;;;;;1.80;99.90;;;;;;5090343;28;19944;-88
2021/12/07 09:11:39;;;;;;;;;;;1.70;99.90;;;;;;5091850;28;19913;-87
2021/12/07 09:14:09;;;;;;;;;;;1.70;99.90;;;;;;5067434;22;19932;-80
2021/12/07 09:16:36;;;;;;;;;;;1.70;99.90;;;;;;5052715;28;19939;-80
2021/12/07 09:19:05;;;;;;;;;;;1.80;99.90;;;;;;5057865;28;19990;-80
2021/12/07 09:21:32;;;;;;;;;;;1.80;99.90;;;;;;5073114;28;20015;-80
2021/12/07 09:23:59;;;;;;;;;;;1.80;99.90;;;;;;5070654;28;20035;-80
2021/12/07 09:26:28;;;;;;;;;;;1.80;99.90;;;;;;5060911;28;20466;-80
2021/12/07 09:28:55;;;;;;;;;;;1.80;99.90;;;;;;5073310;28;19954;-80
2021/12/07 09:31:22;;;;;;;;;;;1.80;99.90;;;;;;5066029;28;20394;-80
2021/12/07 09:33:51;;;;;;;;;;;1.80;99.90;;;;;;5066885;28;19932;-80
2021/12/07 09:36:20;;;;;;;;;;;1.80;99.90;;;;;;5062917;28;19952;-80
2021/12/07 09:38:47;;;;;;;;;;;1.80;99.90;;;;;;5060057;28;20015;-80
2021/12/07 09:41:15;;;;;;;;;;;1.80;99.90;;;;;;5055178;28;19942;-80
2021/12/07 09:43:42;;;;;;;;;;;1.80;99.90;;;;;;5053586;28;19925;-80
2021/12/07 09:46:10;;;;;;;;;;;1.80;99.90;;;;;;5073321;28;20406;-80
2021/12/07 09:48:37;;;;;;;;;;;1.80;99.90;;;;;;5063213;28;19939;-80
2021/12/07 09:51:05;;;;;;;;;;;1.90;99.90;;;;;;5056991;28;19924;-80
2021/12/07 09:53:33;;;;;;;;;;;1.90;99.90;;;;;;5042501;28;20403;-80
2021/12/07 09:56:00;;;;;;;;;;;1.90;99.90;;;;;;5055600;28;19933;-80
2021/12/07 09:58:27;;;;;;;;;;;1.90;99.90;;;;;;5034030;28;19924;-80
2021/12/07 10:00:55;;;;;;;;;;;1.90;99.90;;;;;;5043755;28;19936;-80
2021/12/07 10:03:23;;;;;;;;;;;1.90;99.90;;;;;;5045351;28;19932;-80
2021/12/07 10:05:50;;;;;;;;;;;1.90;99.90;;;;;;5050425;28;19932;-80
2021/12/07 10:08:17;;;;;;;;;;;1.90;99.90;;;;;;5032881;28;20298;-80
2021/12/07 10:10:47;;;;;;;;;;;1.90;99.90;;;;;;5032174;28;19940;-80
2021/12/07 10:13:15;;;;;;;;;;;2.00;99.90;;;;;;5051234;28;19931;-80
2021/12/07 10:15:43;;;;;;;;;;;2.00;99.90;;;;;;5058818;28;20039;-80
2021/12/07 10:18:12;;;;;;;;;;;2.00;99.90;;;;;;5050691;28;19933;-80
2021/12/07 10:20:41;;;;;;;;;;;2.00;99.90;;;;;;5053354;28;20418;-80
2021/12/07 10:23:26;;;;;;;;;;;2.00;99.90;;;;;;5025031;28;19933;-79
2021/12/07 10:25:56;;;;;;;;;;;2.00;99.90;;;;;;5053181;28;20046;-80
2021/12/07 10:28:28;;;;;;;;;;;2.00;99.90;;;;;;5053247;28;20014;-80
2021/12/07 10:30:55;;;;;;;;;;;2.00;99.90;;;;;;5036535;28;21043;-80
2021/12/07 10:33:29;;;;;;;;;;;2.00;99.90;;;;;;5034961;28;20006;-80
2021/12/07 10:36:06;;;;;;;;;;;2.00;99.90;;;;;;5036077;28;20409;-79
2021/12/07 10:38:33;;;;;;;;;;;2.00;99.90;;;;;;5043895;28;19932;-80
2021/12/07 10:41:03;;;;;;;;;;;2.10;99.90;;;;;;5053307;28;19935;-79
2021/12/07 10:43:40;;;;;;;;;;;2.10;99.90;;;;;;5040202;28;20466;-80
2021/12/07 10:46:21;;;;;;;;;;;2.00;99.90;;;;;;5034001;28;20027;-80
2021/12/07 10:48:48;;;;;;;;;;;2.10;99.90;;;;;;5037535;28;19932;-80
2021/12/07 10:51:15;;;;;;;;;;;2.10;99.90;;;;;;5040883;28;19932;-80
2021/12/07 10:53:51;;;;;;;;;;;2.10;99.90;;;;;;5034073;28;19929;-79
2021/12/07 10:56:31;;;;;;;;;;;2.10;99.90;;;;;;5040332;28;19932;-80
2021/12/07 10:59:01;;;;;;;;;;;2.10;99.90;;;;;;5035695;28;19924;-79
2021/12/07 11:01:32;;;;;;;;;;;2.10;99.90;;;;;;5029640;28;19929;-80
2021/12/07 11:04:14;;;;;;;;;;;2.10;99.90;;;;;;5043939;28;19936;-80
2021/12/07 11:06:56;;;;;;;;;;;2.10;99.90;;;;;;5052921;28;19982;-81
2021/12/07 11:09:23;;;;;;;;;;;2.10;99.90;;;;;;5043872;28;20398;-80
2021/12/07 11:12:05;;;;;;;;;;;2.10;99.90;;;;;;5035340;28;19933;-79
2021/12/07 11:14:39;;;;;;;;;;;2.20;99.90;;;;;;5055650;28;19925;-80
2021/12/07 11:17:07;;;;;;;;;;;2.20;99.90;;;;;;5035710;28;19935;-79
2021/12/07 11:19:33;;;;;;;;;;;2.20;99.90;;;;;;5031770;28;19928;-80
2021/12/07 11:22:00;;;;;;;;;;;2.20;99.90;;;;;;5043280;28;19940;-80
2021/12/07 11:24:34;;;;;;;;;;;2.20;99.90;;;;;;5034306;28;19929;-80
2021/12/07 11:30:04;;;;;;;;;;;2.20;99.90;;;;;;4993158;28;20287;-79
2021/12/07 11:32:31;;;;;;;;;;;2.20;99.90;;;;;;5048805;28;20034;-80
2021/12/07 11:35:07;;;;;;;;;;;2.20;99.90;;;;;;5040069;28;20425;-80
2021/12/07 11:37:36;;;;;;;;;;;2.30;99.90;;;;;;5038457;28;19924;-80
2021/12/07 11:40:05;;;;;;;;;;;2.30;99.90;;;;;;5031671;28;20020;-80
2021/12/07 11:42:37;;;;;;;;;;;2.30;99.90;;;;;;5045449;28;19978;-80
2021/12/07 11:45:07;;;;;;;;;;;2.30;99.90;;;;;;5037034;28;20058;-81
2021/12/07 11:47:35;;;;;;;;;;;2.30;99.90;;;;;;5033745;28;19955;-78
2021/12/07 11:50:09;;;;;;;;;;;2.30;99.90;;;;;;5033886;28;19932;-79
2021/12/07 11:52:36;;;;;;;;;;;2.30;99.90;;;;;;5050622;28;19972;-79
2021/12/07 11:55:04;;;;;;;;;;;2.30;99.90;;;;;;5035938;28;20343;-80
2021/12/07 11:57:31;;;;;;;;;;;2.40;99.90;;;;;;5031634;28;19929;-78
2021/12/07 11:59:59;;;;;;;;;;;2.30;99.90;;;;;;5050551;28;19932;-79
2021/12/07 12:02:26;;;;;;;;;;;2.30;99.90;;;;;;5034446;28;20907;-80
2021/12/07 12:04:53;;;;;;;;;;;2.40;99.90;;;;;;5033611;28;19936;-78
2021/12/07 12:07:20;;;;;;;;;;;2.40;99.90;;;;;;5038433;28;20318;-80
2021/12/07 12:09:49;;;;;;;;;;;2.40;99.90;;;;;;5038590;28;19931;-80
2021/12/07 12:12:20;;;;;;;;;;;2.40;99.90;;;;;;5041207;28;19925;-80
2021/12/07 12:14:59;;;;;;;;;;;2.40;99.90;;;;;;5047843;28;19963;-79
2021/12/07 12:17:36;;;;;;;;;;;2.40;99.90;;;;;;5050693;28;19939;-78
2021/12/07 12:20:10;;;;;;;;;;;2.40;99.90;;;;;;5037233;28;19928;-80
2021/12/07 12:22:38;;;;;;;;;;;2.40;99.90;;;;;;5033273;28;20334;-79
2021/12/07 12:25:07;;;;;;;;;;;2.40;99.90;;;;;;5034632;28;20862;-80
2021/12/07 12:27:35;;;;;;;;;;;2.40;99.90;;;;;;5025530;28;20517;-80
2021/12/07 12:30:06;;;;;;;;;;;2.40;99.90;;;;;;5030872;28;20394;-79
2021/12/07 12:32:36;;;;;;;;;;;2.40;99.90;;;;;;5031300;28;19931;-80
2021/12/07 12:35:04;;;;;;;;;;;2.50;99.90;;;;;;5033513;28;19928;-80
2021/12/07 12:37:31;;;;;;;;;;;2.40;99.90;;;;;;5052566;28;20390;-80
2021/12/07 12:39:59;;;;;;;;;;;2.50;99.90;;;;;;5038282;28;19950;-80
2021/12/07 12:42:31;;;;;;;;;;;2.50;99.90;;;;;;5033923;28;20023;-80
2021/12/07 12:45:04;;;;;;;;;;;2.50;99.90;;;;;;5057545;28;20390;-80
2021/12/07 12:47:32;;;;;;;;;;;2.50;99.90;;;;;;5048975;28;20613;-81
2021/12/07 12:50:13;;;;;;;;;;;2.50;99.90;;;;;;5031976;28;19971;-79
2021/12/07 12:52:41;;;;;;;;;;;2.60;99.90;;;;;;5037046;28;19924;-80
2021/12/07 12:55:23;;;;;;;;;;;2.50;99.90;;;;;;5037925;28;19940;-80
2021/12/07 12:57:51;;;;;;;;;;;2.60;99.90;;;;;;5037443;28;19943;-80
2021/12/07 13:00:17;;;;;;;;;;;2.60;99.90;;;;;;5043446;28;19967;-80
2021/12/07 13:02:50;;;;;;;;;;;2.60;99.90;;;;;;5048449;28;19936;-80
2021/12/07 13:05:32;;;;;;;;;;;2.60;99.90;;;;;;5033033;28;19932;-80
2021/12/07 13:08:11;;;;;;;;;;;2.60;99.90;;;;;;5037607;28;19967;-80
2021/12/07 13:10:54;;;;;;;;;;;2.70;99.90;;;;;;5039442;28;19928;-80
2021/12/07 13:13:27;;;;;;;;;;;2.60;99.90;;;;;;5049341;28;19937;-81
2021/12/07 13:15:54;;;;;;;;;;;2.60;99.90;;;;;;5024785;28;19933;-79
2021/12/07 13:18:21;;;;;;;;;;;2.60;99.90;;;;;;5038691;28;19979;-79
2021/12/07 13:20:50;;;;;;;;;;;2.60;99.90;;;;;;5043570;28;19987;-80
2021/12/07 13:23:28;;;;;;;;;;;2.60;99.90;;;;;;5036339;28;19947;-81
2021/12/07 13:25:55;;;;;;;;;;;2.60;99.90;;;;;;5048448;28;19928;-80
2021/12/07 13:28:25;;;;;;;;;;;2.60;99.90;;;;;;5032954;28;19936;-81
2021/12/07 13:31:04;;;;;;;;;;;2.60;99.90;;;;;;5036014;28;19935;-80
2021/12/07 13:33:38;;;;;;;;;;;2.60;99.90;;;;;;5051839;28;19962;-81
2021/12/07 13:36:23;;;;;;;;;;;2.60;99.90;;;;;;5049239;28;19928;-80
2021/12/07 13:38:52;;;;;;;;;;;2.70;99.90;;;;;;5029544;28;19935;-80
2021/12/07 13:41:20;;;;;;;;;;;2.60;99.90;;;;;;5034200;28;19936;-80
2021/12/07 13:43:49;;;;;;;;;;;2.60;99.90;;;;;;5048693;28;20034;-81
2021/12/07 13:46:18;;;;;;;;;;;2.70;99.90;;;;;;5048220;28;19936;-80
2021/12/07 13:48:46;;;;;;;;;;;2.70;99.90;;;;;;5058315;28;20029;-81
2021/12/07 13:51:14;;;;;;;;;;;2.70;99.90;;;;;;5076912;28;20019;-81
2021/12/07 13:53:43;;;;;;;;;;;2.70;99.90;;;;;;5072537;28;20408;-80
2021/12/07 13:56:11;;;;;;;;;;;2.70;99.90;;;;;;5058934;28;20165;-80
2021/12/07 13:58:53;;;;;;;;;;;2.70;99.90;;;;;;5057832;28;20305;-80
2021/12/07 14:01:20;;;;;;;;;;;2.70;99.90;;;;;;5056809;28;19928;-81
2021/12/07 14:03:48;;;;;;;;;;;2.70;99.90;;;;;;5064933;28;19960;-80
2021/12/07 14:06:15;;;;;;;;;;;2.80;99.90;;;;;;5060368;28;19925;-80
2021/12/07 14:08:45;;;;;;;;;;;2.80;99.90;;;;;;5053900;28;19932;-80
2021/12/07 14:11:14;;;;;;;;;;;2.80;99.90;;;;;;5058898;28;19936;-80
2021/12/07 14:13:42;;;;;;;;;;;2.80;99.90;;;;;;5066961;28;19924;-81
2021/12/07 14:16:09;;;;;;;;;;;2.80;99.90;;;;;;5056273;28;19925;-80
2021/12/07 14:18:38;;;;;;;;;;;2.80;99.90;;;;;;5080874;28;20318;-79
2021/12/07 14:21:06;;;;;;;;;;;2.90;99.90;;;;;;5058839;28;19931;-79
2021/12/07 14:23:35;;;;;;;;;;;2.80;99.90;;;;;;5059175;28;19928;-78
2021/12/07 14:26:03;;;;;;;;;;;2.80;99.90;;;;;;5075601;28;20079;-79
2021/12/07 14:28:35;;;;;;;;;;;2.80;99.90;;;;;;5062819;28;20390;-79
2021/12/07 14:31:05;;;;;;;;;;;2.80;99.90;;;;;;5068067;28;20039;-80
2021/12/07 14:33:36;;;;;;;;;;;2.80;99.90;;;;;;5058515;28;19960;-79
2021/12/07 14:36:04;;;;;;;;;;;2.80;99.90;;;;;;5060704;28;20599;-79
2021/12/07 14:38:32;;;;;;;;;;;2.80;99.90;;;;;;5078672;28;19932;-79
2021/12/07 14:41:00;;;;;;;;;;;2.80;99.90;;;;;;5066467;28;20346;-79
2021/12/07 14:43:27;;;;;;;;;;;2.80;99.90;;;;;;5069318;28;20336;-79
2021/12/07 14:46:00;;;;;;;;;;;2.80;99.90;;;;;;5060691;28;20357;-79
2021/12/07 14:48:26;;;;;;;;;;;2.80;99.90;;;;;;5066675;28;19932;-79
2021/12/07 14:50:53;;;;;;;;;;;2.80;99.90;;;;;;5081203;28;19931;-79
2021/12/07 14:53:31;;;;;;;;;;;2.80;99.90;;;;;;5058685;28;19932;-79
2021/12/07 14:55:58;;;;;;;;;;;2.80;99.90;;;;;;5056428;28;19924;-79
2021/12/07 14:58:29;;;;;;;;;;;2.80;99.90;;;;;;5057961;28;19925;-79
2021/12/07 15:00:56;;;;;;;;;;;2.80;99.90;;;;;;5060470;28;20376;-78
2021/12/07 15:03:33;;;;;;;;;;;2.70;99.90;;;;;;5055401;28;20086;-79
2021/12/07 15:06:00;;;;;;;;;;;2.70;99.90;;;;;;5050812;28;19935;-79
2021/12/07 15:08:27;;;;;;;;;;;2.70;99.90;;;;;;5065712;28;19925;-79
2021/12/07 15:10:54;;;;;;;;;;;2.70;99.90;;;;;;5053952;28;19929;-79
2021/12/07 15:13:23;;;;;;;;;;;2.70;99.90;;;;;;5128656;22;19932;-78
2021/12/07 15:15:52;;;;;;;;;;;2.70;99.90;;;;;;5065690;28;19929;-76
2021/12/07 15:18:19;;;;;;;;;;;2.70;99.90;;;;;;5069388;28;19932;-76
2021/12/07 15:20:49;;;;;;;;;;;2.70;99.90;;;;;;5061325;28;19971;-75
2021/12/07 15:23:18;;;;;;;;;;;2.70;99.90;;;;;;5058607;28;19928;-76
2021/12/07 15:25:48;;;;;;;;;;;2.70;99.90;;;;;;5064880;28;20020;-76
2021/12/07 15:28:15;;;;;;;;;;;2.70;99.90;;;;;;5066842;28;19933;-75
2021/12/07 15:30:43;;;;;;;;;;;2.70;99.90;;;;;;5060877;28;19955;-76
2021/12/07 15:33:10;;;;;;;;;;;2.60;99.90;;;;;;5064824;28;19963;-76
2021/12/07 15:35:37;;;;;;;;;;;2.70;99.90;;;;;;5060583;28;20420;-77
2021/12/07 15:38:05;;;;;;;;;;;2.60;99.90;;;;;;5066692;28;19999;-76
2021/12/07 15:40:32;;;;;;;;;;;2.60;99.90;;;;;;5062814;28;19970;-76
2021/12/07 15:42:59;;;;;;;;;;;2.60;99.90;;;;;;5064413;28;19924;-76
2021/12/07 15:45:26;;;;;;;;;;;2.60;99.90;;;;;;5063053;28;19931;-76
2021/12/07 15:47:53;;;;;;;;;;;2.60;99.90;;;;;;5066869;28;20094;-76
2021/12/07 15:50:20;;;;;;;;;;;2.60;99.90;;;;;;5064541;28;19925;-75
2021/12/07 15:52:48;;;;;;;;;;;2.60;99.90;;;;;;5064035;28;19929;-76
2021/12/07 15:55:17;;;;;;;;;;;2.60;99.90;;;;;;5063354;28;19958;-76
2021/12/07 15:57:46;;;;;;;;;;;2.60;99.90;;;;;;5081122;28;19932;-76
2021/12/07 16:00:14;;;;;;;;;;;2.50;99.90;;;;;;5062045;28;19929;-76
2021/12/07 16:02:49;;;;;;;;;;;2.50;99.90;;;;;;5066314;28;20365;-76
2021/12/07 16:05:16;;;;;;;;;;;2.50;99.90;;;;;;5067997;28;19981;-76
2021/12/07 16:07:46;;;;;;;;;;;2.50;99.90;;;;;;5059510;28;21012;-76
2021/12/07 16:10:14;;;;;;;;;;;2.50;99.90;;;;;;5062558;28;19931;-76
2021/12/07 16:12:42;;;;;;;;;;;2.50;99.90;;;;;;5057074;28;19925;-76
2021/12/07 16:15:13;;;;;;;;;;;2.50;99.90;;;;;;5058880;28;20302;-76
2021/12/07 16:17:40;;;;;;;;;;;2.50;99.90;;;;;;5047913;28;19936;-76
2021/12/07 16:20:08;;;;;;;;;;;2.50;99.90;;;;;;5055182;28;19924;-77
2021/12/07 16:22:35;;;;;;;;;;;2.50;99.90;;;;;;5062033;28;19950;-76
2021/12/07 16:25:03;;;;;;;;;;;2.40;99.90;;;;;;5059380;28;20421;-76
2021/12/07 16:27:32;;;;;;;;;;;2.40;99.90;;;;;;5054230;28;19932;-76
2021/12/07 16:30:05;;;;;;;;;;;2.50;99.90;;;;;;5059720;28;20318;-76
2021/12/07 16:32:32;;;;;;;;;;;2.40;99.90;;;;;;5071143;28;19990;-76
2021/12/07 16:34:58;;;;;;;;;;;2.40;99.90;;;;;;5059810;28;20341;-76
2021/12/07 16:37:25;;;;;;;;;;;2.40;99.90;;;;;;5064327;28;19924;-76
2021/12/07 16:39:54;;;;;;;;;;;2.40;99.90;;;;;;5057735;28;19928;-76
2021/12/07 16:42:22;;;;;;;;;;;2.40;99.90;;;;;;5064605;28;20582;-77